Time;durP1;ratioP1;P1;durP2;ratioP2;P2;SDS_P1;SDS_P2;PMS_P1;PMS_P2;Temp;Humidity;BMP_temperature;BMP_pressure;BME280_temperature;BME280_humidity;BME280_pressure;Samples;Min_cycle;Max_cycle;Signal;HPM_P1;HPM_P2
2022/04/12 00:01:33;;;;;;;16.67;11.40;;;4.50;99.90;;;;;;5109857;28;20201;-74
2022/04/12 00:04:01;;;;;;;19.33;11.60;;;4.50;99.90;;;;;;5109163;28;20217;-74
2022/04/12 00:06:30;;;;;;;19.20;12.27;;;4.60;99.90;;;;;;5110174;28;20200;-74
2022/04/12 00:08:57;;;;;;;16.97;10.93;;;4.70;80.20;;;;;;5108703;28;20207;-74
2022/04/12 00:11:24;;;;;;;20.33;12.30;;;4.60;99.90;;;;;;5109157;28;20253;-73
2022/04/12 00:13:51;;;;;;;19.67;12.43;;;4.60;99.90;;;;;;5109151;28;20193;-74
2022/04/12 00:16:18;;;;;;;19.30;11.90;;;4.80;99.90;;;;;;5109844;28;20213;-74
2022/04/12 00:19:02;;;;;;;20.43;13.27;;;4.70;99.90;;;;;;5110754;28;20196;-74
2022/04/12 00:21:34;;;;;;;19.03;12.53;;;4.60;99.90;;;;;;5109838;28;20674;-74
2022/04/12 00:24:02;;;;;;;21.87;13.83;;;4.50;99.90;;;;;;5110031;28;20243;-74
2022/04/12 00:26:29;;;;;;;20.80;13.30;;;4.30;99.90;;;;;;5109335;28;20208;-74
2022/04/12 00:28:56;;;;;;;20.97;13.73;;;4.50;99.90;;;;;;5110668;28;20586;-74
2022/04/12 00:31:23;;;;;;;20.77;13.93;;;4.60;85.50;;;;;;5109757;28;20189;-74
2022/04/12 00:33:50;;;;;;;22.30;12.90;;;4.60;1.00;;;;;;5111477;28;20204;-74
2022/04/12 00:36:18;;;;;;;21.27;13.20;;;4.50;50.20;;;;;;5114401;28;20204;-74
2022/04/12 00:38:46;;;;;;;21.30;13.67;;;4.50;99.90;;;;;;5113404;28;20192;-74
2022/04/12 00:41:13;;;;;;;20.40;13.47;;;4.50;69.50;;;;;;5111922;28;20717;-74
2022/04/12 00:43:40;;;;;;;20.77;13.10;;;4.60;99.90;;;;;;5114950;28;20252;-74
2022/04/12 00:46:07;;;;;;;20.40;13.20;;;4.60;1.00;;;;;;5113365;28;20201;-74
2022/04/12 00:48:35;;;;;;;20.60;13.43;;;4.50;99.90;;;;;;5114485;28;20289;-74
2022/04/12 00:51:02;;;;;;;21.10;13.77;;;4.40;99.90;;;;;;5114264;28;20197;-74
2022/04/12 00:53:30;;;;;;;20.33;13.63;;;4.10;99.90;;;;;;5113870;28;20207;-74
2022/04/12 00:55:59;;;;;;;23.70;15.37;;;4.00;99.90;;;;;;5114782;28;20196;-73
2022/04/12 00:58:26;;;;;;;21.87;13.80;;;4.10;99.90;;;;;;5115307;28;20719;-74
2022/04/12 01:00:53;;;;;;;19.33;13.80;;;4.00;99.90;;;;;;5113186;28;20249;-74
2022/04/12 01:03:20;;;;;;;22.07;13.93;;;4.10;99.90;;;;;;5114700;28;20274;-74
2022/04/12 01:05:49;;;;;;;21.57;13.43;;;3.90;99.90;;;;;;5114713;28;20193;-74
2022/04/12 01:08:17;;;;;;;20.13;13.30;;;3.80;99.90;;;;;;5114821;27;20209;-73
2022/04/12 01:10:45;;;;;;;21.50;13.67;;;3.80;99.90;;;;;;5113181;28;20213;-74
2022/04/12 01:13:14;;;;;;;20.67;13.77;;;3.80;99.90;;;;;;5114915;28;20197;-74
2022/04/12 01:15:42;;;;;;;20.87;12.80;;;3.80;99.90;;;;;;5115022;28;20611;-74
2022/04/12 01:18:09;;;;;;;20.17;13.37;;;3.80;99.90;;;;;;5114953;28;20304;-74
2022/04/12 01:20:37;;;;;;;19.23;13.00;;;3.70;99.90;;;;;;5112805;28;20229;-74
2022/04/12 01:23:10;;;;;;;19.83;13.23;;;3.70;99.90;;;;;;5112895;28;20197;-74
2022/04/12 01:25:39;;;;;;;21.27;13.20;;;3.60;99.90;;;;;;5094048;28;20202;-73
2022/04/12 01:28:06;;;;;;;20.30;12.20;;;3.60;99.90;;;;;;5092957;28;20239;-74
2022/04/12 01:30:34;;;;;;;21.27;13.60;;;3.70;99.90;;;;;;5092667;28;20543;-74
2022/04/12 01:33:01;;;;;;;19.67;13.37;;;4.00;99.90;;;;;;5104396;28;20289;-74
2022/04/12 01:35:28;;;;;;;21.23;13.60;;;3.70;99.90;;;;;;5114178;28;20254;-74
2022/04/12 01:37:55;;;;;;;21.20;13.87;;;3.60;99.90;;;;;;5114612;28;20212;-74
2022/04/12 01:40:22;;;;;;;23.13;14.17;;;3.50;99.90;;;;;;5111705;28;20197;-74
2022/04/12 01:42:52;;;;;;;21.50;13.63;;;3.60;99.90;;;;;;5112668;28;20200;-74
2022/04/12 01:45:20;;;;;;;20.60;13.17;;;3.50;99.90;;;;;;5112613;28;20286;-74
2022/04/12 01:47:47;;;;;;;21.80;13.27;;;3.50;99.90;;;;;;5113183;28;20197;-74
2022/04/12 01:50:14;;;;;;;20.80;13.63;;;3.50;99.90;;;;;;5112526;28;20249;-74
2022/04/12 01:52:41;;;;;;;19.87;12.93;;;3.50;99.90;;;;;;5113235;28;20611;-74
2022/04/12 01:55:09;;;;;;;20.07;12.17;;;3.40;99.90;;;;;;5112345;28;20197;-74
2022/04/12 01:57:36;;;;;;;18.50;12.60;;;3.40;99.90;;;;;;5113819;28;20635;-73
2022/04/12 02:00:07;;;;;;;20.67;12.40;;;3.40;99.90;;;;;;5113432;28;20270;-73
2022/04/12 02:02:34;;;;;;;19.83;12.20;;;3.50;99.90;;;;;;5108162;28;20719;-74
2022/04/12 02:05:01;;;;;;;21.27;13.10;;;3.30;99.90;;;;;;5113474;28;20290;-73
2022/04/12 02:07:28;;;;;;;20.27;12.00;;;3.40;99.90;;;;;;5112568;28;20197;-74
2022/04/12 02:09:55;;;;;;;19.47;12.67;;;3.20;99.90;;;;;;5105305;28;20198;-74
2022/04/12 02:12:22;;;;;;;22.90;13.13;;;3.10;99.90;;;;;;5092274;28;20668;-73
2022/04/12 02:14:49;;;;;;;20.23;11.57;;;3.20;99.90;;;;;;5111990;28;20786;-73
2022/04/12 02:17:17;;;;;;;20.57;12.20;;;3.20;99.90;;;;;;5112381;28;20231;-73
2022/04/12 02:19:44;;;;;;;22.70;13.70;;;3.30;99.90;;;;;;5112728;28;20305;-73
2022/04/12 02:22:11;;;;;;;20.43;12.20;;;3.20;99.90;;;;;;5112887;28;20723;-73
2022/04/12 02:24:38;;;;;;;21.77;12.30;;;3.20;99.90;;;;;;5113702;28;20254;-73
2022/04/12 02:27:05;;;;;;;21.83;13.23;;;3.20;99.90;;;;;;5112361;28;20205;-73
2022/04/12 02:29:32;;;;;;;20.93;12.70;;;3.20;99.90;;;;;;5112893;28;20201;-73
2022/04/12 02:31:59;;;;;;;20.00;12.33;;;3.20;99.90;;;;;;5112097;28;20250;-73
2022/04/12 02:34:28;;;;;;;19.30;12.40;;;3.10;99.90;;;;;;5111999;28;20201;-73
2022/04/12 02:36:55;;;;;;;22.87;13.83;;;3.10;99.90;;;;;;5112860;28;20646;-73
2022/04/12 02:39:22;;;;;;;23.90;14.10;;;3.10;99.90;;;;;;5112969;28;20605;-73
2022/04/12 02:41:49;;;;;;;23.37;13.87;;;3.00;99.90;;;;;;5111338;28;20197;-73
2022/04/12 02:44:16;;;;;;;22.77;13.50;;;3.00;99.90;;;;;;5113058;28;20229;-73
2022/04/12 02:46:43;;;;;;;23.70;14.60;;;3.10;99.90;;;;;;5111123;28;20541;-73
2022/04/12 02:49:11;;;;;;;23.33;13.80;;;3.10;99.90;;;;;;5112462;28;20221;-73
2022/04/12 02:51:39;;;;;;;23.43;14.70;;;3.20;99.90;;;;;;5111669;28;20205;-73
2022/04/12 02:54:06;;;;;;;25.43;15.13;;;3.30;99.90;;;;;;5113149;28;20239;-73
2022/04/12 02:56:33;;;;;;;20.73;13.27;;;3.20;99.90;;;;;;5111001;28;20197;-73
2022/04/12 02:59:00;;;;;;;23.30;14.23;;;3.20;99.90;;;;;;5092075;28;20582;-73
2022/04/12 03:01:27;;;;;;;25.23;14.27;;;3.40;99.90;;;;;;5091470;28;20239;-73
2022/04/12 03:03:54;;;;;;;25.63;15.47;;;3.40;99.90;;;;;;5091813;28;20272;-73
2022/04/12 03:06:21;;;;;;;24.63;15.27;;;3.30;99.90;;;;;;5095100;28;20208;-73
2022/04/12 03:08:49;;;;;;;23.37;14.53;;;3.20;99.90;;;;;;5112407;28;20308;-73
2022/04/12 03:11:16;;;;;;;26.47;15.80;;;3.20;99.90;;;;;;5110117;28;20266;-73
2022/04/12 03:13:43;;;;;;;24.73;15.23;;;3.10;99.90;;;;;;5110993;28;20212;-73
2022/04/12 03:16:10;;;;;;;24.63;14.57;;;3.10;99.90;;;;;;5112025;28;20209;-72
2022/04/12 03:18:37;;;;;;;24.60;14.97;;;3.00;99.90;;;;;;5110369;28;20197;-73
2022/04/12 03:21:04;;;;;;;27.20;15.67;;;3.00;99.90;;;;;;5109870;28;20419;-73
2022/04/12 03:23:32;;;;;;;25.40;15.23;;;3.00;99.90;;;;;;5110388;28;20250;-72
2022/04/12 03:26:00;;;;;;;25.43;15.50;;;3.00;99.90;;;;;;5111274;28;20211;-72
2022/04/12 03:28:27;;;;;;;24.77;15.00;;;2.90;99.90;;;;;;5112158;28;20197;-75
2022/04/12 03:30:54;;;;;;;28.13;15.43;;;3.00;99.90;;;;;;5110839;28;20222;-75
2022/04/12 03:33:21;;;;;;;25.83;15.53;;;3.10;99.90;;;;;;5111841;28;20281;-75
2022/04/12 03:35:48;;;;;;;25.33;14.83;;;3.10;99.90;;;;;;5111439;28;20822;-75
2022/04/12 03:38:16;;;;;;;25.43;14.90;;;3.00;99.90;;;;;;5110292;28;20293;-75
2022/04/12 03:40:46;;;;;;;24.03;14.53;;;3.10;99.90;;;;;;5111083;28;20296;-75
2022/04/12 03:43:14;;;;;;;24.40;15.10;;;3.20;99.90;;;;;;5111614;28;20252;-71
2022/04/12 03:45:41;;;;;;;24.93;14.03;;;3.20;99.90;;;;;;5106790;28;20229;-71
2022/04/12 03:48:08;;;;;;;23.10;13.80;;;3.30;99.90;;;;;;5095897;28;20588;-72
2022/04/12 03:50:35;;;;;;;24.27;14.43;;;3.40;99.90;;;;;;5110302;28;20192;-72
2022/04/12 03:53:03;;;;;;;24.40;13.47;;;3.40;99.90;;;;;;5110416;28;20197;-72
2022/04/12 03:55:35;;;;;;;24.23;13.97;;;3.30;99.90;;;;;;5109241;28;20644;-72
2022/04/12 03:58:03;;;;;;;23.80;13.57;;;3.20;99.90;;;;;;5111263;28;20197;-72
2022/04/12 04:00:32;;;;;;;20.93;13.30;;;3.20;99.90;;;;;;5110473;28;20205;-72
2022/04/12 04:02:59;;;;;;;24.60;13.40;;;3.20;99.90;;;;;;5108065;28;20597;-72
2022/04/12 04:05:27;;;;;;;22.53;13.33;;;3.20;99.90;;;;;;5110157;28;20270;-72
2022/04/12 04:07:54;;;;;;;21.97;13.63;;;3.20;99.90;;;;;;5110758;28;20555;-72
2022/04/12 04:10:21;;;;;;;23.57;12.93;;;3.30;99.90;;;;;;5108752;28;20236;-72
2022/04/12 04:12:48;;;;;;;22.33;13.33;;;3.30;99.90;;;;;;5108475;28;20203;-74
2022/04/12 04:15:15;;;;;;;20.57;13.00;;;3.40;99.90;;;;;;5108639;28;20201;-75
2022/04/12 04:17:45;;;;;;;20.90;13.63;;;3.40;99.90;;;;;;5107405;28;20246;-73
2022/04/12 04:20:13;;;;;;;20.57;12.77;;;3.30;99.90;;;;;;5110682;28;20665;-72
2022/04/12 04:22:41;;;;;;;19.40;12.57;;;3.40;99.90;;;;;;5111462;28;20242;-75
2022/04/12 04:25:09;;;;;;;21.33;12.23;;;3.30;99.90;;;;;;5110869;28;20474;-75
2022/04/12 04:27:36;;;;;;;20.53;12.17;;;3.20;99.90;;;;;;5110125;28;20563;-72
2022/04/12 04:30:07;;;;;;;20.27;13.07;;;3.50;99.90;;;;;;5109499;28;20238;-72
2022/04/12 04:32:35;;;;;;;19.10;11.63;;;3.50;99.90;;;;;;5110033;28;20200;-73
2022/04/12 04:35:03;;;;;;;22.40;12.23;;;3.50;99.90;;;;;;5111077;28;20236;-72
2022/04/12 04:37:30;;;;;;;21.40;11.60;;;3.60;99.90;;;;;;5110842;28;20212;-73
2022/04/12 04:39:57;;;;;;;17.77;10.83;;;3.60;99.90;;;;;;5108379;28;20639;-73
2022/04/12 04:42:27;;;;;;;19.37;11.43;;;3.50;99.90;;;;;;5110376;28;20204;-73
2022/04/12 04:44:53;;;;;;;23.57;12.53;;;3.40;99.90;;;;;;5110659;28;20217;-73
2022/04/12 04:47:20;;;;;;;19.63;11.27;;;3.40;99.90;;;;;;5109828;28;20261;-75
2022/04/12 04:49:47;;;;;;;21.10;11.13;;;3.30;99.90;;;;;;5110379;28;20200;-73
2022/04/12 04:52:16;;;;;;;20.40;11.53;;;3.30;99.90;;;;;;5109796;28;20253;-73
2022/04/12 04:54:43;;;;;;;22.07;11.60;;;3.60;99.90;;;;;;5109743;28;20201;-72
2022/04/12 04:57:10;;;;;;;17.10;10.47;;;4.10;99.90;;;;;;5110981;28;20229;-73
2022/04/12 04:59:37;;;;;;;19.93;11.07;;;4.10;99.90;;;;;;5110442;28;20651;-73
2022/04/12 05:02:04;;;;;;;18.77;11.27;;;4.00;99.90;;;;;;5110122;28;20606;-73
2022/04/12 05:04:31;;;;;;;18.10;11.37;;;4.00;99.90;;;;;;5110024;28;20225;-72
2022/04/12 05:06:58;;;;;;;19.67;10.37;;;3.80;99.90;;;;;;5108879;28;20201;-73
2022/04/12 05:09:26;;;;;;;21.47;12.27;;;3.70;99.90;;;;;;5115500;28;20197;-75
2022/04/12 05:11:53;;;;;;;16.43;10.73;;;3.60;99.90;;;;;;5106167;28;20214;-75
2022/04/12 05:14:20;;;;;;;19.73;11.97;;;3.50;99.90;;;;;;5109697;28;20201;-75
2022/04/12 05:16:47;;;;;;;19.87;12.17;;;3.60;99.90;;;;;;5111176;28;20235;-72
2022/04/12 05:19:14;;;;;;;18.00;11.30;;;3.60;99.90;;;;;;5110755;28;20262;-72
2022/04/12 05:21:41;;;;;;;20.83;11.43;;;3.60;99.90;;;;;;5103051;28;20639;-72
2022/04/12 05:24:08;;;;;;;17.63;10.80;;;3.70;99.90;;;;;;5105426;28;20242;-72
2022/04/12 05:26:37;;;;;;;22.03;11.77;;;3.90;99.90;;;;;;5110803;28;20655;-73
2022/04/12 05:29:04;;;;;;;16.90;10.40;;;4.00;99.90;;;;;;5114221;28;20212;-73
2022/04/12 05:31:31;;;;;;;19.20;11.50;;;4.10;99.90;;;;;;5112106;28;20197;-72
2022/04/12 05:33:58;;;;;;;18.07;10.67;;;4.10;99.90;;;;;;5114351;28;20228;-72
2022/04/12 05:36:25;;;;;;;18.57;10.97;;;4.10;99.90;;;;;;5114314;28;20205;-73
2022/04/12 05:38:52;;;;;;;18.00;11.07;;;4.30;99.90;;;;;;5113098;28;20250;-75
2022/04/12 05:41:19;;;;;;;17.73;10.80;;;4.40;99.90;;;;;;5112832;28;20249;-75
2022/04/12 05:43:47;;;;;;;16.70;10.40;;;4.40;99.90;;;;;;5112833;28;20193;-73
2022/04/12 05:46:14;;;;;;;17.97;10.90;;;4.50;99.90;;;;;;5112384;28;20436;-75
2022/04/12 05:48:41;;;;;;;21.50;11.17;;;4.50;99.90;;;;;;5112436;28;20643;-72
2022/04/12 05:51:08;;;;;;;18.70;10.80;;;4.70;99.90;;;;;;5113184;28;20232;-72
2022/04/12 05:53:35;;;;;;;20.07;11.77;;;4.80;99.90;;;;;;5113430;28;20671;-72
2022/04/12 05:56:02;;;;;;;19.37;11.27;;;4.90;1.00;;;;;;5114109;28;20662;-73
2022/04/12 05:58:32;;;;;;;18.87;10.87;;;5.10;1.00;;;;;;5113926;28;20289;-71
2022/04/12 06:01:00;;;;;;;20.07;10.67;;;5.20;1.00;;;;;;5113233;28;20208;-73
2022/04/12 06:03:28;;;;;;;18.33;10.83;;;5.30;1.00;;;;;;5113078;28;20197;-73
2022/04/12 06:05:54;;;;;;;21.93;11.37;;;5.20;1.00;;;;;;5114152;28;20217;-74
2022/04/12 06:08:21;;;;;;;20.80;11.57;;;5.30;1.00;;;;;;5112893;28;20209;-72
2022/04/12 06:10:48;;;;;;;18.73;11.57;;;5.50;1.00;;;;;;5112047;28;20262;-72
2022/04/12 06:13:15;;;;;;;18.37;10.77;;;5.80;1.00;;;;;;5110776;28;20448;-72
2022/04/12 06:15:42;;;;;;;18.23;10.17;;;6.30;1.00;;;;;;5113676;28;20605;-73
2022/04/12 06:18:11;;;;;;;17.47;10.93;;;6.60;1.00;;;;;;5112547;28;20273;-76
2022/04/12 06:20:38;;;;;;;17.13;10.50;;;7.10;99.90;;;;;;5113274;28;20193;-76
2022/04/12 06:23:05;;;;;;;17.50;9.93;;;7.50;1.00;;;;;;5112286;28;20557;-73
2022/04/12 06:25:32;;;;;;;17.33;10.10;;;7.60;1.00;;;;;;5110154;28;20624;-73
2022/04/12 06:27:59;;;;;;;15.43;8.77;;;7.80;1.00;;;;;;5109221;28;20677;-73
2022/04/12 06:30:30;;;;;;;15.50;8.87;;;7.90;99.90;;;;;;5109412;28;20200;-73
2022/04/12 06:32:57;;;;;;;15.17;8.70;;;7.80;1.00;;;;;;5109628;28;20244;-76
2022/04/12 06:35:26;;;;;;;15.17;8.40;;;7.50;1.00;;;;;;5110600;28;20216;-73
2022/04/12 06:37:56;;;;;;;14.43;8.60;;;7.50;1.00;;;;;;5110712;28;20560;-76
2022/04/12 06:40:24;;;;;;;13.87;8.30;;;7.70;99.90;;;;;;5109270;28;20201;-73
2022/04/12 06:42:52;;;;;;;15.00;8.87;;;7.90;1.00;;;;;;5109093;28;20637;-72
2022/04/12 06:45:19;;;;;;;18.93;9.67;;;8.10;1.00;;;;;;5110222;28;20252;-72
2022/04/12 06:47:53;;;;;;;14.30;9.07;;;8.10;1.00;;;;;;5108674;28;20250;-76
2022/04/12 06:50:20;;;;;;;14.90;9.10;;;8.20;40.70;;;;;;5110445;28;20201;-73
2022/04/12 06:52:48;;;;;;;15.13;8.87;;;8.20;99.90;;;;;;5110177;28;20209;-73
2022/04/12 06:55:17;;;;;;;14.33;7.97;;;8.30;1.00;;;;;;5109219;27;20710;-75
2022/04/12 06:57:44;;;;;;;13.80;8.37;;;8.20;1.00;;;;;;5111536;28;20529;-72
2022/04/12 07:00:12;;;;;;;15.87;9.30;;;8.20;1.00;;;;;;5110806;28;20605;-76
2022/04/12 07:02:39;;;;;;;14.37;8.90;;;8.20;99.90;;;;;;5111138;28;20257;-73
2022/04/12 07:05:08;;;;;;;15.43;8.83;;;8.10;99.90;;;;;;5109901;28;20209;-73
2022/04/12 07:07:36;;;;;;;15.13;8.63;;;8.20;29.40;;;;;;5111413;28;20197;-73
2022/04/12 07:10:05;;;;;;;14.50;8.53;;;8.30;91.50;;;;;;5112809;27;20209;-73
2022/04/12 07:12:33;;;;;;;13.67;7.20;;;8.30;1.00;;;;;;5109104;28;20197;-73
2022/04/12 07:15:00;;;;;;;13.07;8.03;;;8.20;99.90;;;;;;5108576;28;20205;-72
2022/04/12 07:17:26;;;;;;;11.23;7.87;;;8.30;1.00;;;;;;5112886;27;20197;-72
2022/04/12 07:19:53;;;;;;;13.63;8.23;;;8.50;99.90;;;;;;5121339;27;20207;-72
2022/04/12 07:22:20;;;;;;;12.63;8.63;;;8.50;99.90;;;;;;5113448;27;20207;-73
2022/04/12 07:24:47;;;;;;;15.27;8.63;;;8.60;1.00;;;;;;5111603;27;20205;-72
2022/04/12 07:27:15;;;;;;;12.27;7.80;;;8.60;1.00;;;;;;5113080;27;20197;-72
2022/04/12 07:29:42;;;;;;;16.10;9.03;;;8.90;99.90;;;;;;5115957;27;20673;-73
2022/04/12 07:32:09;;;;;;;14.47;8.50;;;9.00;1.00;;;;;;5114385;27;20197;-73
2022/04/12 07:34:36;;;;;;;14.80;8.63;;;9.10;1.00;;;;;;5116686;27;20205;-72
2022/04/12 07:37:03;;;;;;;13.33;8.07;;;9.40;1.00;;;;;;5114493;27;20197;-73
2022/04/12 07:39:30;;;;;;;12.47;7.70;;;9.10;1.00;;;;;;5113386;27;20209;-73
2022/04/12 07:41:57;;;;;;;14.67;7.90;;;9.10;1.00;;;;;;5115340;27;20197;-73
2022/04/12 07:44:25;;;;;;;13.27;8.33;;;9.30;1.00;;;;;;5113684;27;20207;-73
2022/04/12 07:46:52;;;;;;;12.97;7.17;;;9.40;99.90;;;;;;5116398;27;20224;-73
2022/04/12 07:49:18;;;;;;;12.30;7.93;;;9.90;1.00;;;;;;5113245;27;20242;-73
2022/04/12 07:51:46;;;;;;;13.50;7.87;;;10.10;1.00;;;;;;5117516;27;20574;-73
2022/04/12 07:54:13;;;;;;;11.97;7.90;;;10.40;32.00;;;;;;5113763;27;20197;-73
2022/04/12 07:56:40;;;;;;;11.77;8.20;;;10.50;1.00;;;;;;5117521;27;20300;-73
2022/04/12 07:59:09;;;;;;;11.13;7.60;;;10.30;99.90;;;;;;5112226;28;20207;-73
2022/04/12 08:01:37;;;;;;;13.17;8.30;;;10.30;99.90;;;;;;5113545;27;20220;-73
2022/04/12 08:04:04;;;;;;;11.60;7.97;;;10.60;99.90;;;;;;5116604;27;20203;-73
2022/04/12 08:06:31;;;;;;;9.97;7.30;;;10.90;1.00;;;;;;5114355;28;20228;-73
2022/04/12 08:08:58;;;;;;;12.40;8.27;;;10.90;99.90;;;;;;5114120;28;20197;-73
2022/04/12 08:11:25;;;;;;;12.33;8.17;;;10.80;1.00;;;;;;5117898;28;20204;-73
2022/04/12 08:13:53;;;;;;;14.57;8.00;;;10.70;1.00;;;;;;5109569;28;20201;-73
2022/04/12 08:16:20;;;;;;;12.70;7.90;;;10.70;1.00;;;;;;5111118;28;20284;-73
2022/04/12 08:18:49;;;;;;;11.60;7.63;;;10.80;1.00;;;;;;5117590;28;20212;-73
2022/04/12 08:21:30;;;;;;;13.53;7.60;;;10.80;1.00;;;;;;5113252;28;20662;-73
2022/04/12 08:23:57;;;;;;;11.30;7.30;;;11.00;1.00;;;;;;5120637;28;20203;-73
2022/04/12 08:26:24;;;;;;;11.80;7.67;;;11.20;1.00;;;;;;5113371;28;20216;-73
2022/04/12 08:28:51;;;;;;;11.27;7.33;;;11.40;99.90;;;;;;5113178;28;20203;-72
2022/04/12 08:31:18;;;;;;;13.87;7.93;;;11.70;99.90;;;;;;5105614;28;20201;-73
2022/04/12 08:33:45;;;;;;;11.00;8.00;;;11.60;1.00;;;;;;5114521;28;20216;-72
2022/04/12 08:36:13;;;;;;;13.13;8.53;;;11.70;1.00;;;;;;5114473;28;20193;-73
2022/04/12 08:38:40;;;;;;;12.50;8.40;;;11.70;99.90;;;;;;5114984;28;20576;-73
2022/04/12 08:41:07;;;;;;;13.43;9.53;;;11.70;99.90;;;;;;5112887;28;20208;-73
2022/04/12 08:43:36;;;;;;;11.47;8.20;;;11.90;99.90;;;;;;5116551;28;20666;-73
2022/04/12 08:46:03;;;;;;;12.90;8.00;;;11.80;1.00;;;;;;5112678;28;20217;-73
2022/04/12 08:48:31;;;;;;;13.03;8.17;;;11.90;99.90;;;;;;5114627;28;20205;-72
2022/04/12 08:50:58;;;;;;;11.93;8.23;;;11.80;1.00;;;;;;5118231;28;20202;-73
2022/04/12 08:53:27;;;;;;;13.23;8.93;;;12.00;1.00;;;;;;5115573;28;20566;-73
2022/04/12 08:55:55;;;;;;;12.67;7.90;;;12.20;1.00;;;;;;5115272;27;20209;-73
2022/04/12 08:58:22;;;;;;;12.30;8.07;;;12.20;1.00;;;;;;5115995;27;20567;-73
2022/04/12 09:00:49;;;;;;;13.07;9.23;;;12.50;99.90;;;;;;5120576;27;20215;-73
2022/04/12 09:03:16;;;;;;;11.97;7.80;;;12.70;1.00;;;;;;5115304;28;20207;-72
2022/04/12 09:05:43;;;;;;;14.30;8.60;;;12.70;96.40;;;;;;5118493;27;20223;-73
2022/04/12 09:08:24;;;;;;;12.80;8.63;;;12.80;1.00;;;;;;5117823;27;20197;-73
2022/04/12 09:10:58;;;;;;;12.47;8.30;;;12.50;1.00;;;;;;5113330;27;20214;-73
2022/04/12 09:13:25;;;;;;;13.00;8.40;;;13.30;1.00;;;;;;5111076;27;20204;-73
2022/04/12 09:15:52;;;;;;;10.27;7.77;;;13.60;1.00;;;;;;5116041;27;20199;-73
2022/04/12 09:18:32;;;;;;;11.63;8.20;;;13.60;99.90;;;;;;5108424;27;20554;-73
2022/04/12 09:21:11;;;;;;;10.33;7.83;;;13.60;99.90;;;;;;5115033;27;20685;-72
2022/04/12 09:23:38;;;;;;;11.47;8.27;;;13.50;78.20;;;;;;5116640;27;20197;-73
2022/04/12 09:26:06;;;;;;;11.93;8.57;;;13.40;1.00;;;;;;5118199;27;20260;-73
2022/04/12 09:28:42;;;;;;;13.83;9.17;;;13.60;89.00;;;;;;5121453;27;20224;-73
2022/04/12 09:31:19;;;;;;;10.83;7.87;;;13.90;99.90;;;;;;5113684;27;20613;-72
2022/04/12 09:33:48;;;;;;;11.73;8.07;;;13.80;90.50;;;;;;5117331;27;20631;-73
2022/04/12 09:36:15;;;;;;;11.27;8.00;;;13.90;91.60;;;;;;5109870;27;20197;-73
2022/04/12 09:38:43;;;;;;;13.13;9.03;;;14.10;87.90;;;;;;5117077;27;20206;-73
2022/04/12 09:41:23;;;;;;;13.30;8.87;;;14.20;1.00;;;;;;5114866;27;20667;-73
2022/04/12 09:43:54;;;;;;;13.30;8.47;;;14.20;96.60;;;;;;5114726;27;20192;-73
2022/04/12 09:46:21;;;;;;;12.17;8.53;;;14.30;1.00;;;;;;5120119;27;20724;-73
2022/04/12 09:48:49;;;;;;;11.57;8.40;;;14.30;1.00;;;;;;5119187;27;20669;-73
2022/04/12 09:51:17;;;;;;;11.27;7.87;;;14.30;1.00;;;;;;5119344;27;20206;-73
2022/04/12 09:53:46;;;;;;;11.00;8.07;;;14.70;99.90;;;;;;5114713;27;20197;-73
2022/04/12 09:56:20;;;;;;;11.20;7.70;;;14.70;99.90;;;;;;5119809;27;20254;-73
2022/04/12 09:58:48;;;;;;;12.30;8.90;;;14.80;1.00;;;;;;5118640;27;20685;-73
2022/04/12 10:01:17;;;;;;;11.07;8.50;;;14.80;23.80;;;;;;5121234;27;20207;-73
2022/04/12 10:03:46;;;;;;;9.90;8.03;;;14.90;1.00;;;;;;5115184;27;20212;-73
2022/04/12 10:06:15;;;;;;;10.63;7.80;;;14.90;75.60;;;;;;5114761;28;20217;-73
2022/04/12 10:08:44;;;;;;;12.73;8.07;;;14.90;1.00;;;;;;5112184;28;20605;-73
2022/04/12 10:11:14;;;;;;;11.40;8.07;;;15.00;77.10;;;;;;5113081;28;20244;-73
2022/04/12 10:13:42;;;;;;;13.87;9.07;;;15.00;53.20;;;;;;5113676;28;20193;-73
2022/04/12 10:16:10;;;;;;;13.50;8.30;;;15.10;39.70;;;;;;5114188;28;20678;-73
2022/04/12 10:18:39;;;;;;;13.93;8.87;;;15.60;99.90;;;;;;5094045;28;20235;-73
2022/04/12 10:21:06;;;;;;;11.63;8.20;;;15.50;58.50;;;;;;5093492;28;20209;-73
2022/04/12 10:23:34;;;;;;;13.23;7.33;;;15.70;65.80;;;;;;5110738;28;20654;-73
2022/04/12 10:26:02;;;;;;;13.33;8.37;;;15.70;51.80;;;;;;5114506;28;20769;-73
2022/04/12 10:28:30;;;;;;;11.60;7.63;;;16.10;58.20;;;;;;5113208;28;20660;-73
2022/04/12 10:31:20;;;;;;;10.55;7.57;;;16.20;53.50;;;;;;5114483;28;20204;-73
2022/04/12 10:34:09;;;;;;;11.03;7.70;;;15.80;50.00;;;;;;5113622;28;20228;-72
2022/04/12 10:36:58;;;;;;;10.87;7.70;;;16.00;57.80;;;;;;5114269;28;20196;-72
2022/04/12 10:39:35;;;;;;;11.73;8.10;;;16.00;45.50;;;;;;5113704;28;20208;-72
2022/04/12 10:42:05;;;;;;;12.23;8.32;;;15.90;53.00;;;;;;5113872;28;20207;-72
2022/04/12 10:44:43;;;;;;;11.05;7.03;;;16.30;56.50;;;;;;5113517;28;20647;-72
2022/04/12 10:47:27;;;;;;;10.10;7.17;;;16.10;43.80;;;;;;5113247;28;20217;-72
2022/04/12 10:49:56;;;;;;;11.55;7.25;;;16.30;47.80;;;;;;5113838;28;20654;-72
2022/04/12 10:52:42;;;;;;;9.18;6.82;;;16.60;45.80;;;;;;5114288;28;20205;-72
2022/04/12 10:55:11;;;;;;;9.50;6.85;;;16.50;44.00;;;;;;5112547;28;20659;-73
2022/04/12 10:57:38;;;;;;;10.50;7.05;;;16.50;28.60;;;;;;5112803;28;20193;-72
2022/04/12 11:00:12;;;;;;;11.43;6.82;;;16.80;38.20;;;;;;5112104;28;20197;-73
2022/04/12 11:02:45;;;;;;;10.65;7.22;;;16.90;47.00;;;;;;5113825;28;20192;-72
2022/04/12 11:05:52;;;;;;;8.05;6.50;;;16.90;34.10;;;;;;5113997;28;20300;-72
2022/04/12 11:08:49;;;;;;;9.57;6.88;;;17.00;31.90;;;;;;5112674;28;20215;-72
2022/04/12 11:11:22;;;;;;;12.77;7.80;;;17.20;29.30;;;;;;5089333;28;20682;-72
2022/04/12 11:13:50;;;;;;;10.80;8.15;;;16.90;31.80;;;;;;5113007;28;20660;-72
2022/04/12 11:16:19;;;;;;;10.85;8.25;;;17.10;35.00;;;;;;5112453;28;20255;-73
2022/04/12 11:18:49;;;;;;;11.45;8.23;;;16.90;36.60;;;;;;5112024;28;20233;-72
2022/04/12 11:21:18;;;;;;;14.35;9.60;;;16.90;41.80;;;;;;5108533;28;20204;-72
2022/04/12 11:23:47;;;;;;;13.07;9.60;;;16.90;38.90;;;;;;5112349;28;20554;-72
2022/04/12 11:26:33;;;;;;;12.48;10.00;;;17.10;48.80;;;;;;5113046;28;20655;-72
2022/04/12 11:29:00;;;;;;;14.90;9.50;;;17.40;99.90;;;;;;5111916;28;20197;-73
2022/04/12 11:31:27;;;;;;;12.13;9.15;;;17.30;42.40;;;;;;5113295;28;20620;-72
2022/04/12 11:33:58;;;;;;;13.15;9.10;;;17.50;39.80;;;;;;5113050;28;20208;-72
2022/04/12 11:36:26;;;;;;;13.60;9.30;;;17.30;41.30;;;;;;5112367;28;20193;-72
2022/04/12 11:38:53;;;;;;;14.15;9.93;;;17.30;41.90;;;;;;5111610;28;20539;-73
2022/04/12 11:41:20;;;;;;;13.35;10.35;;;17.60;47.70;;;;;;5111264;28;20192;-72
2022/04/12 11:43:46;;;;;;;13.82;9.65;;;17.60;49.40;;;;;;5110275;28;20201;-73
2022/04/12 11:46:18;;;;;;;13.10;9.77;;;17.30;38.50;;;;;;5112900;28;20209;-72
2022/04/12 11:48:45;;;;;;;12.85;9.57;;;17.60;54.90;;;;;;5112092;28;20208;-72
2022/04/12 11:51:18;;;;;;;14.07;9.93;;;17.60;41.40;;;;;;5113056;28;20221;-72
2022/04/12 11:53:49;;;;;;;13.82;9.82;;;17.70;47.10;;;;;;5112729;28;20240;-72
2022/04/12 11:56:16;;;;;;;12.77;9.80;;;17.60;50.30;;;;;;5111901;28;20236;-72
2022/04/12 11:58:45;;;;;;;14.55;10.80;;;17.70;42.90;;;;;;5111472;28;20205;-73
2022/04/12 12:01:13;;;;;;;13.73;10.23;;;17.80;1.00;;;;;;5112524;28;20246;-72
2022/04/12 12:03:42;;;;;;;15.50;10.80;;;17.70;41.80;;;;;;5112928;28;20295;-72
2022/04/12 12:06:09;;;;;;;16.23;10.25;;;17.80;39.90;;;;;;5112992;28;20614;-72
2022/04/12 12:08:38;;;;;;;12.63;8.48;;;17.80;32.90;;;;;;5111515;28;20211;-72
2022/04/12 12:11:12;;;;;;;12.88;9.77;;;17.90;34.20;;;;;;5112486;28;20212;-73
2022/04/12 12:13:39;;;;;;;13.52;9.52;;;18.10;29.90;;;;;;5111902;28;20201;-72
2022/04/12 12:16:15;;;;;;;13.77;9.50;;;18.40;33.60;;;;;;5112814;28;20201;-72
2022/04/12 12:18:42;;;;;;;12.02;8.88;;;18.10;23.10;;;;;;5112500;28;20204;-73
2022/04/12 12:21:09;;;;;;;13.57;8.75;;;18.70;25.50;;;;;;5111677;28;20189;-73
2022/04/12 12:23:36;;;;;;;14.60;8.80;;;18.70;24.60;;;;;;5112428;28;20218;-73
2022/04/12 12:26:04;;;;;;;12.38;8.70;;;19.60;19.30;;;;;;5111495;28;20197;-73
2022/04/12 12:28:31;;;;;;;13.50;9.55;;;19.60;20.60;;;;;;5110625;28;20701;-73
2022/04/12 12:31:00;;;;;;;13.43;9.30;;;19.10;19.10;;;;;;5113319;28;20201;-77
2022/04/12 12:33:37;;;;;;;14.65;9.45;;;18.90;25.80;;;;;;5116797;28;20611;-73
2022/04/12 12:36:04;;;;;;;15.68;9.50;;;18.60;22.80;;;;;;5116403;28;20307;-73
2022/04/12 12:38:32;;;;;;;13.57;9.95;;;18.70;23.00;;;;;;5114061;28;20201;-73
2022/04/12 12:41:00;;;;;;;12.30;8.80;;;18.80;28.30;;;;;;5114569;28;20208;-72
2022/04/12 12:43:33;;;;;;;10.77;7.47;;;18.90;37.00;;;;;;5113728;28;20203;-77
2022/04/12 12:46:07;;;;;;;12.60;7.88;;;19.00;21.00;;;;;;5114876;28;20201;-73
2022/04/12 12:48:34;;;;;;;12.20;8.25;;;19.20;19.80;;;;;;5115839;28;20579;-73